createdAt,value
2018-09-29T00:00:55.839Z,73.42
2018-09-29T00:01:56.085Z,73.42
2018-09-29T00:02:56.071Z,73.42
2018-09-29T00:03:56.047Z,73.8
2018-09-29T00:04:56.149Z,74.18
2018-09-29T00:05:55.748Z,73.52
2018-09-29T00:06:55.733Z,73.61
2018-09-29T00:07:55.972Z,73.42
2018-09-29T00:08:55.693Z,72.66
2018-09-29T00:09:55.947Z,72.28
2018-09-29T00:10:55.656Z,72.25
2018-09-29T00:11:55.903Z,72.06
2018-09-29T00:12:55.618Z,72.47
2018-09-29T00:13:55.867Z,72.53
2018-09-29T00:14:55.855Z,72.63
2018-09-29T00:15:55.566Z,71.58
2018-09-29T00:16:55.813Z,71.96
2018-09-29T00:17:55.800Z,71.77
2018-09-29T00:18:55.779Z,72.06
2018-09-29T00:19:55.763Z,71.77
2018-09-29T00:20:55.476Z,71.77
2018-09-29T00:21:55.725Z,72.06
2018-09-29T00:22:55.714Z,71.58
2018-09-29T00:23:55.684Z,71.2
2018-09-29T00:24:55.667Z,71.58
2018-09-29T00:25:55.393Z,71.2
2018-09-29T00:26:55.629Z,70.92
2018-09-29T00:27:55.346Z,71.2
2018-09-29T00:28:55.647Z,70.25
2018-09-29T00:29:55.579Z,70.25
2018-09-29T00:30:55.558Z,70.25
2018-09-29T00:31:55.277Z,69.59
2018-09-29T00:32:55.517Z,69.4
2018-09-29T00:33:55.507Z,68.92
2018-09-29T00:34:55.215Z,68.73
2018-09-29T00:35:55.201Z,69.21
2018-09-29T00:36:55.445Z,68.73
2018-09-29T00:37:55.172Z,68.35
2018-09-29T00:38:55.406Z,68.64
2018-09-29T00:39:55.128Z,68.07
2018-09-29T00:40:55.105Z,67.97
2018-09-29T00:41:55.097Z,67.4
2018-09-29T00:42:55.342Z,67.21
2018-09-29T00:43:55.321Z,67.4
2018-09-29T00:44:55.033Z,66.74
2018-09-29T00:45:55.280Z,66.64
2018-09-29T00:46:54.999Z,66.83
2018-09-29T00:47:54.976Z,66.64
2018-09-29T00:48:54.960Z,66.55
2018-09-29T00:49:55.207Z,66.36
2018-09-29T00:50:54.923Z,66.27
2018-09-29T00:51:55.165Z,66.08
2018-09-29T00:52:55.157Z,66.55
2018-09-29T00:53:54.865Z,66.08
2018-09-29T00:54:55.112Z,65.79
2018-09-29T00:55:55.100Z,66.17
2018-09-29T00:56:55.072Z,65.88
2018-09-29T00:57:54.792Z,65.88
2018-09-29T00:58:55.034Z,65.69
2018-09-29T00:59:55.220Z,65.69
2018-09-29T01:00:54.998Z,65.75
2018-09-29T01:01:54.715Z,65.79
2018-09-29T01:02:54.964Z,66.04
2018-09-29T01:03:54.945Z,65.28
2018-09-29T01:04:54.663Z,65.41
2018-09-29T01:05:54.655Z,65.37
2018-09-29T01:06:54.621Z,64.9
2018-09-29T01:07:54.604Z,64.56
2018-09-29T01:08:54.585Z,64.71
2018-09-29T01:09:54.841Z,64.43
2018-09-29T01:10:54.550Z,64.43
2018-09-29T01:11:54.529Z,64.9
2018-09-29T01:12:54.513Z,65.09
2018-09-29T01:13:54.761Z,65.09
2018-09-29T01:14:54.481Z,64.81
2018-09-29T01:15:54.719Z,65.09
2018-09-29T01:16:54.708Z,65
2018-09-29T01:17:54.680Z,64.62
2018-09-29T01:18:54.661Z,64.24
2018-09-29T01:19:54.643Z,64.33
2018-09-29T01:20:54.359Z,64.33
2018-09-29T01:21:54.606Z,64.71
2018-09-29T01:22:54.586Z,65.09
2018-09-29T01:23:54.568Z,64.81
2018-09-29T01:24:54.553Z,64.52
2018-09-29T01:25:54.270Z,64.24
2018-09-29T01:26:54.250Z,64.05
2018-09-29T01:27:54.495Z,64.14
2018-09-29T01:28:54.478Z,64.05
2018-09-29T01:29:54.195Z,63.95
2018-09-29T01:30:54.174Z,64.33
2018-09-29T01:31:54.426Z,64.14
2018-09-29T01:32:54.403Z,64.05
2018-09-29T01:33:54.121Z,64.24
2018-09-29T01:34:54.098Z,63.67
2018-09-29T01:35:54.084Z,63.2
2018-09-29T01:36:54.324Z,63.01
2018-09-29T01:37:54.331Z,62.53
2018-09-29T01:38:54.294Z,62.53
2018-09-29T01:39:54.009Z,62.15
2018-09-29T01:40:54.252Z,62.15
2018-09-29T01:41:53.969Z,62.24
2018-09-29T01:42:54.211Z,61.87
2018-09-29T01:43:54.197Z,61.77
2018-09-29T01:44:54.174Z,61.49
2018-09-29T01:45:54.155Z,61.68
2018-09-29T01:46:53.876Z,61.49
2018-09-29T01:47:54.118Z,61.68
2018-09-29T01:48:54.101Z,61.01
2018-09-29T01:49:54.096Z,61.39
2018-09-29T01:50:54.060Z,60.44
2018-09-29T01:51:53.779Z,60.53
2018-09-29T01:52:53.765Z,60.35
2018-09-29T01:53:54.020Z,60.53
2018-09-29T01:54:53.987Z,60.44
2018-09-29T01:55:53.969Z,59.78
2018-09-29T01:56:53.945Z,59.88
2018-09-29T01:57:53.931Z,59.78
2018-09-29T01:58:53.647Z,60.06
2018-09-29T01:59:53.626Z,59.4
2018-09-29T02:00:53.867Z,59.21
2018-09-29T02:01:53.854Z,58.92
2018-09-29T02:02:53.839Z,58.73
2018-09-29T02:03:53.813Z,58.45
2018-09-29T02:04:53.795Z,58.36
2018-09-29T02:05:53.775Z,58.42
2018-09-29T02:06:53.755Z,57.98
2018-09-29T02:07:53.485Z,58.26
2018-09-29T02:08:53.717Z,57.59
2018-09-29T02:09:53.697Z,57.19
2018-09-29T02:10:53.681Z,57.5
2018-09-29T02:11:53.667Z,57.28
2018-09-29T02:12:53.378Z,57.66
2018-09-29T02:13:53.620Z,57.47
2018-09-29T02:14:53.609Z,57.66
2018-09-29T02:15:53.592Z,57.47
2018-09-29T02:16:53.305Z,57.57
2018-09-29T02:17:53.556Z,57.85
2018-09-29T02:18:53.527Z,57.47
2018-09-29T02:19:53.249Z,57.38
2018-09-29T02:20:53.221Z,57.57
2018-09-29T02:21:53.207Z,57.47
2018-09-29T02:22:53.186Z,57.57
2018-09-29T02:23:53.429Z,57.57
2018-09-29T02:24:53.145Z,57.76
2018-09-29T02:25:53.127Z,57.57
2018-09-29T02:26:53.105Z,58.23
2018-09-29T02:27:53.091Z,58.42
2018-09-29T02:28:53.482Z,58.51
2018-09-29T02:29:53.050Z,58.04
2018-09-29T02:30:53.299Z,57.57
2018-09-29T02:31:53.273Z,58.14
2018-09-29T02:32:53.256Z,57.47
2018-09-29T02:33:52.980Z,57.09
2018-09-29T02:34:53.220Z,57.09
2018-09-29T02:35:53.196Z,57.19
2018-09-29T02:36:53.180Z,57.38
2018-09-29T02:37:53.160Z,56.81
2018-09-29T02:38:52.875Z,56.9
2018-09-29T02:39:52.864Z,57.28
2018-09-29T02:40:53.110Z,56.99
2018-09-29T02:41:53.081Z,56.81
2018-09-29T02:42:53.061Z,56.52
2018-09-29T02:43:52.778Z,56.34
2018-09-29T02:44:53.019Z,56.34
2018-09-29T02:45:52.740Z,56.15
2018-09-29T02:46:52.989Z,56.9
2018-09-29T02:47:52.967Z,56.62
2018-09-29T02:48:52.952Z,56.71
2018-09-29T02:49:52.921Z,55.86
2018-09-29T02:50:52.905Z,55.67
2018-09-29T02:51:52.623Z,55.38
2018-09-29T02:52:52.872Z,55.38
2018-09-29T02:53:52.586Z,55.57
2018-09-29T02:54:52.825Z,54.72
2018-09-29T02:55:52.547Z,54.82
2018-09-29T02:56:52.790Z,54.91
2018-09-29T02:57:52.769Z,54.82
2018-09-29T02:58:52.752Z,54.82
2018-09-29T03:00:07.608Z,54.82
2018-09-29T03:00:52.707Z,54.72
2018-09-29T03:01:52.693Z,55.57
2018-09-29T03:02:52.682Z,55.48
2018-09-29T03:03:52.398Z,55.38
2018-09-29T03:04:52.370Z,55.38
2018-09-29T03:05:52.351Z,55.38
2018-09-29T03:06:52.596Z,55.38
2018-09-29T03:07:52.312Z,54.72
2018-09-29T03:08:52.293Z,54.72
2018-09-29T03:09:52.536Z,54.63
2018-09-29T03:10:52.515Z,54.63
2018-09-29T03:11:52.237Z,54.82
2018-09-29T03:12:52.481Z,54.63
2018-09-29T03:13:52.459Z,54.63
2018-09-29T03:14:52.439Z,54.44
2018-09-29T03:15:52.420Z,54.82
2018-09-29T03:16:52.399Z,54.82
2018-09-29T03:17:52.380Z,54.91
2018-09-29T03:18:52.358Z,54.91
2018-09-29T03:19:52.076Z,54.82
2018-09-29T03:20:52.324Z,54.03
2018-09-29T03:21:52.304Z,54.06
2018-09-29T03:22:52.017Z,53.84
2018-09-29T03:23:52.264Z,54.06
2018-09-29T03:24:51.983Z,53.75
2018-09-29T03:25:52.223Z,53.18
2018-09-29T03:26:51.939Z,52.61
2018-09-29T03:27:52.197Z,52.42
2018-09-29T03:28:52.172Z,52.23
2018-09-29T03:29:52.144Z,51.66
2018-09-29T03:30:51.879Z,51.85
2018-09-29T03:31:52.372Z,51.66
2018-09-29T03:32:51.823Z,51.18
2018-09-29T03:33:52.072Z,51.37
2018-09-29T03:34:52.047Z,51.31
2018-09-29T03:35:51.765Z,51.68
2018-09-29T03:36:52.013Z,51.31
2018-09-29T03:37:51.727Z,51.28
2018-09-29T03:38:51.712Z,51.5
2018-09-29T03:39:51.946Z,51.18
2018-09-29T03:40:51.929Z,51.37
2018-09-29T03:41:51.907Z,51.18
2018-09-29T03:42:51.629Z,51.37
2018-09-29T03:43:51.881Z,51.57
2018-09-29T03:44:51.849Z,51.28
2018-09-29T03:45:51.567Z,51.37
2018-09-29T03:46:51.554Z,51.31
2018-09-29T03:47:51.533Z,51.47
2018-09-29T03:48:51.508Z,51.68
2018-09-29T03:49:51.486Z,51.28
2018-09-29T03:50:51.470Z,51.47
2018-09-29T03:51:51.753Z,51.47
2018-09-29T03:52:51.698Z,51.28
2018-09-29T03:53:51.689Z,51.37
2018-09-29T03:54:51.654Z,51.37
2018-09-29T03:55:51.369Z,51.47
2018-09-29T03:56:51.611Z,51.85
2018-09-29T03:57:51.600Z,51.57
2018-09-29T03:58:51.586Z,52.14
2018-09-29T03:59:51.296Z,51.85
2018-09-29T04:00:51.537Z,51.85
2018-09-29T04:01:51.531Z,52.04
2018-09-29T04:02:51.231Z,51.95
2018-09-29T04:03:51.476Z,51.95
2018-09-29T04:04:51.461Z,51.95
2018-09-29T04:05:51.173Z,52.04
2018-09-29T04:06:51.154Z,51.76
2018-09-29T04:07:51.133Z,51.66
2018-09-29T04:08:51.113Z,52.14
2018-09-29T04:09:51.363Z,51.85
2018-09-29T04:10:51.073Z,51.85
2018-09-29T04:11:51.318Z,51.95
2018-09-29T04:12:51.038Z,52.04
2018-09-29T04:13:51.485Z,52.04
2018-09-29T04:14:51.256Z,52.04
2018-09-29T04:15:50.975Z,52.23
2018-09-29T04:16:51.217Z,52.04
2018-09-29T04:17:51.198Z,52.04
2018-09-29T04:18:51.187Z,51.76
2018-09-29T04:19:51.161Z,52.14
2018-09-29T04:20:50.875Z,52.23
2018-09-29T04:21:51.116Z,51.95
2018-09-29T04:22:51.102Z,52.42
2018-09-29T04:23:50.816Z,52.23
2018-09-29T04:24:50.794Z,52.04
2018-09-29T04:25:50.776Z,51.85
2018-09-29T04:26:51.020Z,51.85
2018-09-29T04:27:50.737Z,51.47
2018-09-29T04:28:50.720Z,51.57
2018-09-29T04:29:50.960Z,51.47
2018-09-29T04:30:50.941Z,51.28
2018-09-29T04:31:50.921Z,51.57
2018-09-29T04:32:50.902Z,50.9
2018-09-29T04:33:50.886Z,50.62
2018-09-29T04:34:50.597Z,50.62
2018-09-29T04:35:50.585Z,50.81
2018-09-29T04:36:50.558Z,50.34
2018-09-29T04:37:50.552Z,50.15
2018-09-29T04:38:50.519Z,49.95
2018-09-29T04:39:50.503Z,50.24
2018-09-29T04:40:50.745Z,50.05
2018-09-29T04:41:50.465Z,50.15
2018-09-29T04:42:50.708Z,50.05
2018-09-29T04:43:50.689Z,49.67
2018-09-29T04:44:50.404Z,49.67
2018-09-29T04:45:50.384Z,49.86
2018-09-29T04:46:50.360Z,50.05
2018-09-29T04:47:50.340Z,49.86
2018-09-29T04:48:50.584Z,49.76
2018-09-29T04:49:50.567Z,49.86
2018-09-29T04:50:50.279Z,49.67
2018-09-29T04:51:50.260Z,50.15
2018-09-29T04:52:50.504Z,50.15
2018-09-29T04:53:50.219Z,49.48
2018-09-29T04:54:50.465Z,49.86
2018-09-29T04:55:50.444Z,48.72
2018-09-29T04:56:50.427Z,47.77
2018-09-29T04:57:50.415Z,48.06
2018-09-29T04:58:50.122Z,47.58
2018-09-29T04:59:50.375Z,47.58
2018-09-29T05:00:50.345Z,47.68
2018-09-29T05:01:50.327Z,47.11
2018-09-29T05:02:50.302Z,46.07
2018-09-29T05:03:50.026Z,46.73
2018-09-29T05:04:50.001Z,46.45
2018-09-29T05:05:50.245Z,46.26
2018-09-29T05:06:49.961Z,46.64
2018-09-29T05:07:50.214Z,46.73
2018-09-29T05:08:50.233Z,47.02
2018-09-29T05:09:49.902Z,46.73
2018-09-29T05:10:49.881Z,46.83
2018-09-29T05:11:49.864Z,46.07
2018-09-29T05:12:50.109Z,46.07
2018-09-29T05:13:49.831Z,46.26
2018-09-29T05:14:49.801Z,46.07
2018-09-29T05:15:50.047Z,46.26
2018-09-29T05:16:49.765Z,46.16
2018-09-29T05:17:50.006Z,46.83
2018-09-29T05:18:49.722Z,46.73
2018-09-29T05:19:49.700Z,46.83
2018-09-29T05:20:49.829Z,46.64
2018-09-29T05:21:49.927Z,46.83
2018-09-29T05:22:49.905Z,46.35
2018-09-29T05:23:49.627Z,46.26
2018-09-29T05:24:49.865Z,46.45
2018-09-29T05:25:49.852Z,46.73
2018-09-29T05:26:49.825Z,46.45
2018-09-29T05:27:49.539Z,46.45
2018-09-29T05:28:49.784Z,46.64
2018-09-29T05:29:49.767Z,46.14
2018-09-29T05:30:49.557Z,45.86
2018-09-29T05:31:49.461Z,45.76
2018-09-29T05:32:49.705Z,45.48
2018-09-29T05:33:49.689Z,45.29
2018-09-29T05:34:49.406Z,45.48
2018-09-29T05:35:49.644Z,45.1
2018-09-29T05:36:49.357Z,45.1
2018-09-29T05:37:49.608Z,44.81
2018-09-29T05:38:49.319Z,44.84
2018-09-29T05:39:49.569Z,44.74
2018-09-29T05:40:49.281Z,44.65
2018-09-29T05:41:49.257Z,44.74
2018-09-29T05:42:49.241Z,45.31
2018-09-29T05:43:49.522Z,45.67
2018-09-29T05:44:49.461Z,45.38
2018-09-29T05:45:49.177Z,45.5
2018-09-29T05:46:49.160Z,45.21
2018-09-29T05:47:49.137Z,45.31
2018-09-29T05:48:49.382Z,45.38
2018-09-29T05:49:49.102Z,45.31
2018-09-29T05:50:49.343Z,44.72
2018-09-29T05:51:49.060Z,44.62
2018-09-29T05:52:49.305Z,44.91
2018-09-29T05:53:49.022Z,44.65
2018-09-29T05:54:49.000Z,44.36
2018-09-29T05:55:48.980Z,44.15
2018-09-29T05:56:49.229Z,43.88
2018-09-29T05:57:48.936Z,43.88
2018-09-29T05:58:48.916Z,43.79
2018-09-29T05:59:49.159Z,43.79
2018-09-29T06:00:49.142Z,43.7
2018-09-29T06:01:48.860Z,43.51
2018-09-29T06:02:49.100Z,43.13
2018-09-29T06:03:49.090Z,43.13
2018-09-29T06:04:48.797Z,42.56
2018-09-29T06:05:48.825Z,42.66
2018-09-29T06:06:49.072Z,42.37
2018-09-29T06:07:48.749Z,42.18
2018-09-29T06:08:48.980Z,42.08
2018-09-29T06:09:48.961Z,41.8
2018-09-29T06:10:48.966Z,41.99
2018-09-29T06:11:48.923Z,42.18
2018-09-29T06:12:48.902Z,41.71
2018-09-29T06:13:48.884Z,42.08
2018-09-29T06:14:48.860Z,41.52
2018-09-29T06:15:48.840Z,41.42
2018-09-29T06:16:48.563Z,41.52
2018-09-29T06:17:48.804Z,41.61
2018-09-29T06:18:48.786Z,41.8
2018-09-29T06:19:48.762Z,41.42
2018-09-29T06:20:48.816Z,41.24
2018-09-29T06:21:48.721Z,41.05
2018-09-29T06:22:48.437Z,40.66
2018-09-29T06:23:48.684Z,40.88
2018-09-29T06:24:48.665Z,40.57
2018-09-29T06:25:48.380Z,40.21
2018-09-29T06:26:48.358Z,39.73
2018-09-29T06:27:48.649Z,39.83
2018-09-29T06:28:48.580Z,40.02
2018-09-29T06:29:48.307Z,39.54
2018-09-29T06:30:48.282Z,39.54
2018-09-29T06:31:48.530Z,39.83
2018-09-29T06:32:48.509Z,39.26
2018-09-29T06:33:48.491Z,39.36
2018-09-29T06:34:48.466Z,39.54
2018-09-29T06:35:48.183Z,38.98
2018-09-29T06:36:48.498Z,38.69
2018-09-29T06:37:48.147Z,38.69
2018-09-29T06:38:48.388Z,38.5
2018-09-29T06:39:48.370Z,38.41
2018-09-29T06:40:48.091Z,38.12
2018-09-29T06:41:48.067Z,38.03
2018-09-29T06:42:48.309Z,37.84
2018-09-29T06:43:48.293Z,37.37
2018-09-29T06:44:48.280Z,36.63
2018-09-29T06:45:48.250Z,36.63
2018-09-29T06:46:48.236Z,35.96
2018-09-29T06:47:48.334Z,36.34
2018-09-29T06:48:48.206Z,36.05
2018-09-29T06:49:47.910Z,35.96
2018-09-29T06:50:48.160Z,35.68
2018-09-29T06:51:47.874Z,35.96
2018-09-29T06:52:48.117Z,35.39
2018-09-29T06:53:47.836Z,35.77
2018-09-29T06:54:47.812Z,35.68
2018-09-29T06:55:48.056Z,35.68
2018-09-29T06:56:48.051Z,35.3
2018-09-29T06:57:48.033Z,35.01
2018-09-29T06:58:47.741Z,35.3
2018-09-29T06:59:47.991Z,35.41
2018-09-29T07:00:48.168Z,35.49
2018-09-29T07:01:47.945Z,34.84
2018-09-29T07:02:47.941Z,34.94
2018-09-29T07:03:47.640Z,34.84
2018-09-29T07:04:47.942Z,34.84
2018-09-29T07:05:47.602Z,34.94
2018-09-29T07:06:47.847Z,34.84
2018-09-29T07:07:47.826Z,34.55
2018-09-29T07:08:47.822Z,34.65
2018-09-29T07:09:47.531Z,34.55
2018-09-29T07:10:47.507Z,34.65
2018-09-29T07:11:47.490Z,34.75
2018-09-29T07:12:47.765Z,34.65
2018-09-29T07:13:47.717Z,34.55
2018-09-29T07:14:47.697Z,34.84
2018-09-29T07:15:47.684Z,34.84
2018-09-29T07:16:47.660Z,34.94
2018-09-29T07:17:47.642Z,34.76
2018-09-29T07:18:47.619Z,35.52
2018-09-29T07:19:47.606Z,35.61
2018-09-29T07:20:47.321Z,35.42
2018-09-29T07:21:47.884Z,34.86
2018-09-29T07:22:47.554Z,35.24
2018-09-29T07:23:47.270Z,35.42
2018-09-29T07:24:47.251Z,34.76
2018-09-29T07:25:47.496Z,35.42
2018-09-29T07:26:47.472Z,35.24
2018-09-29T07:27:47.458Z,35.52
2018-09-29T07:28:47.441Z,36
2018-09-29T07:29:47.154Z,36.09
2018-09-29T07:30:47.413Z,36.76
2018-09-29T07:31:47.118Z,36.94
2018-09-29T07:32:47.368Z,37.42
2018-09-29T07:33:47.080Z,37.92
2018-09-29T07:34:47.062Z,38.29
2018-09-29T07:35:47.308Z,38.29
2018-09-29T07:36:47.295Z,38.68
2018-09-29T07:37:47.013Z,39.15
2018-09-29T07:38:46.999Z,40.01
2018-09-29T07:39:47.241Z,40.2
2018-09-29T07:40:47.221Z,40.77
2018-09-29T07:41:46.940Z,41.14
2018-09-29T07:42:47.181Z,41.53
2018-09-29T07:43:46.897Z,42.38
2018-09-29T07:44:46.883Z,42.86
2018-09-29T07:45:46.861Z,43.9
2018-09-29T07:46:46.843Z,44.28
2018-09-29T07:47:46.826Z,44.67
2018-09-29T07:48:46.806Z,44.67
2018-09-29T07:49:47.053Z,45.8
2018-09-29T07:50:47.036Z,45.33
2018-09-29T07:51:46.759Z,46.37
2018-09-29T07:52:47.002Z,46.4
2018-09-29T07:53:46.720Z,47.34
2018-09-29T07:54:47.065Z,48.11
2018-09-29T07:55:46.730Z,48.58
2018-09-29T07:56:46.663Z,48.49
2018-09-29T07:57:46.645Z,48.49
2018-09-29T07:58:46.624Z,48.21
2018-09-29T07:59:46.610Z,48.96
2018-09-29T08:00:46.856Z,49.25
2018-09-29T08:01:46.574Z,50.39
2018-09-29T08:02:46.818Z,51.53
2018-09-29T08:03:46.803Z,51.43
2018-09-29T08:04:46.529Z,52.39
2018-09-29T08:05:46.768Z,52.58
2018-09-29T08:06:46.752Z,52.58
2018-09-29T08:07:46.729Z,52.1
2018-09-29T08:08:46.716Z,54.89
2018-09-29T08:09:46.430Z,56.12
2018-09-29T08:10:46.417Z,56.41
2018-09-29T08:11:46.397Z,56.03
2018-09-29T08:12:46.382Z,55.55
2018-09-29T08:13:46.625Z,55.74
2018-09-29T08:14:46.347Z,55.65
2018-09-29T08:15:46.599Z,55.74
2018-09-29T08:16:46.574Z,56.22
2018-09-29T08:17:46.557Z,55.83
2018-09-29T08:18:46.542Z,55.93
2018-09-29T08:19:46.527Z,57.45
2018-09-29T08:20:46.243Z,56.98
2018-09-29T08:21:46.494Z,58.12
2018-09-29T08:22:46.472Z,58.79
2018-09-29T08:23:46.454Z,59.55
2018-09-29T08:24:46.441Z,59.55
2018-09-29T08:25:46.432Z,59.64
2018-09-29T08:26:46.402Z,59.58
2018-09-29T08:27:46.386Z,61.48
2018-09-29T08:28:46.375Z,65.38
2018-09-29T08:29:46.089Z,67.1
2018-09-29T08:30:46.340Z,66.91
2018-09-29T08:31:46.059Z,67
2018-09-29T08:32:46.304Z,67.1
2018-09-29T08:33:46.025Z,67.86
2018-09-29T08:34:46.267Z,69.19
2018-09-29T08:35:45.985Z,71.47
2018-09-29T08:36:46.233Z,70.72
2018-09-29T08:37:46.338Z,70.43
2018-09-29T08:38:46.200Z,70.24
2018-09-29T08:39:45.922Z,70.72
2018-09-29T08:40:46.179Z,70.14
2018-09-29T08:41:46.158Z,70.27
2018-09-29T08:42:45.867Z,70.47
2018-09-29T08:43:45.853Z,71.22
2018-09-29T08:44:46.101Z,70.94
2018-09-29T08:45:46.082Z,70.94
2018-09-29T08:46:46.152Z,70.47
2018-09-29T08:47:45.787Z,70.27
2018-09-29T08:48:45.766Z,70.65
2018-09-29T08:49:46.326Z,70.65
2018-09-29T08:50:45.736Z,72.08
2018-09-29T08:51:45.721Z,74.37
2018-09-29T08:52:45.703Z,76.27
2018-09-29T08:53:45.899Z,76.08
2018-09-29T08:54:45.672Z,77.32
2018-09-29T08:55:45.654Z,77.55
2018-09-29T08:56:45.902Z,78.17
2018-09-29T08:57:45.888Z,77.64
2018-09-29T08:58:45.867Z,76.69
2018-09-29T08:59:45.592Z,75.84
2018-09-29T09:00:46.040Z,77.36
2018-09-29T09:01:45.569Z,77.45
2018-09-29T09:02:45.809Z,76.31
2018-09-29T09:03:45.796Z,75.64
2018-09-29T09:04:45.775Z,77.45
2018-09-29T09:05:45.757Z,79.74
2018-09-29T09:06:45.740Z,79.74
2018-09-29T09:07:45.464Z,79.02
2018-09-29T09:08:45.711Z,77.93
2018-09-29T09:09:45.692Z,77.11
2018-09-29T09:10:45.674Z,77.87
2018-09-29T09:11:45.662Z,77.97
2018-09-29T09:12:45.644Z,79.88
2018-09-29T09:13:45.361Z,79.49
2018-09-29T09:14:45.616Z,83.69
2018-09-29T09:15:45.600Z,82.45
2018-09-29T09:16:45.588Z,81.78
2018-09-29T09:17:45.298Z,81.97
2018-09-29T09:18:45.288Z,82.92
2018-09-29T09:19:45.265Z,82.64
2018-09-29T09:20:45.517Z,83.78
2018-09-29T09:21:45.498Z,84.26
2018-09-29T09:22:45.522Z,84.07
2018-09-29T09:23:45.618Z,83.31
2018-09-29T09:24:45.455Z,82.73
2018-09-29T09:25:45.499Z,82.35
2018-09-29T09:26:45.154Z,82.3
2018-09-29T09:27:45.140Z,82.2
2018-09-29T09:28:45.389Z,82.3
2018-09-29T09:29:45.452Z,84.97
2018-09-29T09:30:45.365Z,91.74
2018-09-29T09:31:45.083Z,91.55
2018-09-29T09:32:45.333Z,91.36
2018-09-29T09:33:45.310Z,94.32
2018-09-29T09:34:45.036Z,93.36
2018-09-29T09:35:45.284Z,94.12
2018-09-29T09:36:45.011Z,95.32
2018-09-29T09:37:44.987Z,95.03
2018-09-29T09:38:44.974Z,95.89
2018-09-29T09:39:45.228Z,98.18
2018-09-29T09:40:44.939Z,98.37
2018-09-29T09:41:44.929Z,98.75
2018-09-29T09:42:45.178Z,97.89
2018-09-29T09:43:45.161Z,97.42
2018-09-29T09:44:45.142Z,97.89
2018-09-29T09:45:45.129Z,99.99
2018-09-29T09:46:44.848Z,99.99
2018-09-29T09:47:45.097Z,99.99
2018-09-29T09:48:45.085Z,99.99
2018-09-29T09:49:45.075Z,99.99
2018-09-29T09:50:45.057Z,99.99
2018-09-29T09:51:45.043Z,99.99
2018-09-29T09:52:45.025Z,99.71
2018-09-29T09:53:44.753Z,99.99
2018-09-29T09:54:44.997Z,99.99
2018-09-29T09:55:44.990Z,99.99
2018-09-29T09:56:44.969Z,99.99
2018-09-29T09:57:44.693Z,99.99
2018-09-29T09:58:44.668Z,99.99
2018-09-29T09:59:44.656Z,99.99
2018-09-29T10:00:44.911Z,99.99
2018-09-29T10:01:44.890Z,99.99
2018-09-29T10:02:44.877Z,99.99
2018-09-29T10:03:44.865Z,99.99
2018-09-29T10:04:44.597Z,99.99
2018-09-29T10:05:44.567Z,99.99
2018-09-29T10:06:44.812Z,99.99
2018-09-29T10:07:44.542Z,99.99
2018-09-29T10:08:44.791Z,99.99
2018-09-29T10:09:44.508Z,99.99
2018-09-29T10:10:44.759Z,99.99
2018-09-29T10:11:44.495Z,99.99
2018-09-29T10:12:44.729Z,99.99
2018-09-29T10:13:44.449Z,99.99
2018-09-29T10:14:44.706Z,99.99
2018-09-29T10:15:44.688Z,99.99
2018-09-29T10:16:44.677Z,99.99
2018-09-29T10:17:44.655Z,99.99
2018-09-29T10:18:44.652Z,99.99
2018-09-29T10:19:44.649Z,99.99
2018-09-29T10:20:44.355Z,99.99
2018-09-29T10:21:44.603Z,99.99
2018-09-29T10:22:44.320Z,99.99
2018-09-29T10:23:44.578Z,99.99
2018-09-29T10:24:44.294Z,99.99
2018-09-29T10:25:44.544Z,99.99
2018-09-29T10:26:44.529Z,99.99
2018-09-29T10:27:44.662Z,99.99
2018-09-29T10:28:44.236Z,99.99
2018-09-29T10:29:44.224Z,99.99
2018-09-29T10:30:44.478Z,99.99
2018-09-29T10:31:44.192Z,99.99
2018-09-29T10:32:44.444Z,99.99
2018-09-29T10:33:44.165Z,99.99
2018-09-29T10:34:44.153Z,99.99
2018-09-29T10:35:44.138Z,99.99
2018-09-29T10:36:44.392Z,99.99
2018-09-29T10:37:44.110Z,99.99
2018-09-29T10:38:44.362Z,99.99
2018-09-29T10:39:44.082Z,99.99
2018-09-29T10:40:44.336Z,99.99
2018-09-29T10:41:44.056Z,99.99
2018-09-29T10:42:44.036Z,99.99
2018-09-29T10:43:44.025Z,99.99
2018-09-29T10:44:44.325Z,99.99
2018-09-29T10:45:44.000Z,99.99
2018-09-29T10:46:43.987Z,99.99
2018-09-29T10:47:43.969Z,99.99
2018-09-29T10:48:43.953Z,99.99
2018-09-29T10:49:43.941Z,99.99
2018-09-29T10:50:44.199Z,99.99
2018-09-29T10:51:44.180Z,99.99
2018-09-29T10:52:44.170Z,99.99
2018-09-29T10:53:43.892Z,99.99
2018-09-29T10:54:44.137Z,99.99
2018-09-29T10:55:44.127Z,99.99
2018-09-29T10:56:44.114Z,99.99
2018-09-29T10:57:44.099Z,99.99
2018-09-29T10:58:44.080Z,99.99
2018-09-29T10:59:44.071Z,99.99
2018-09-29T11:00:44.005Z,99.99
2018-09-29T11:01:44.060Z,99.99
2018-09-29T11:02:44.246Z,99.99
2018-09-29T11:03:43.761Z,99.99
2018-09-29T11:04:43.737Z,99.99
2018-09-29T11:05:43.993Z,99.99
2018-09-29T11:06:43.976Z,99.99
2018-09-29T11:07:43.962Z,99.99
2018-09-29T11:08:43.949Z,99.99
2018-09-29T11:09:43.672Z,99.99
2018-09-29T11:10:43.926Z,99.99
2018-09-29T11:11:43.911Z,99.99
2018-09-29T11:12:43.898Z,99.99
2018-09-29T11:13:43.891Z,99.99
2018-09-29T11:14:43.877Z,99.99
2018-09-29T11:15:43.866Z,99.99
2018-09-29T11:16:43.856Z,99.99
2018-09-29T11:17:43.847Z,99.99
2018-09-29T11:18:43.557Z,99.99
2018-09-29T11:19:43.547Z,99.99
2018-09-29T11:20:43.560Z,99.99
2018-09-29T11:21:43.784Z,99.99
2018-09-29T11:22:43.774Z,99.99
2018-09-29T11:23:43.495Z,99.99
2018-09-29T11:24:43.747Z,99.99
2018-09-29T11:25:43.743Z,99.99
2018-09-29T11:26:43.720Z,99.99
2018-09-29T11:27:43.812Z,99.99
2018-09-29T11:28:43.697Z,99.99
2018-09-29T11:29:43.683Z,99.99
2018-09-29T11:30:43.406Z,96.84
2018-09-29T11:31:43.399Z,94.93
2018-09-29T11:32:43.656Z,99.99
2018-09-29T11:33:43.638Z,99.99
2018-09-29T11:34:43.361Z,96.56
2018-09-29T11:35:43.610Z,95.61
2018-09-29T11:36:43.341Z,98.57
2018-09-29T11:37:43.324Z,91.68
2018-09-29T11:38:43.578Z,91.49
2018-09-29T11:39:43.300Z,95.89
2018-09-29T11:40:43.709Z,89.76
2018-09-29T11:41:43.282Z,88.09
2018-09-29T11:42:43.535Z,85.21
2018-09-29T11:43:43.260Z,89.9
2018-09-29T11:44:43.625Z,85.02
2018-09-29T11:45:43.517Z,86.17
2018-09-29T11:46:43.494Z,88.09
2018-09-29T11:47:43.482Z,89.81
2018-09-29T11:48:43.211Z,87.08
2018-09-29T11:49:43.202Z,84.97
2018-09-29T11:50:43.464Z,82.32
2018-09-29T11:51:43.444Z,82.14
2018-09-29T11:52:43.438Z,83.48
2018-09-29T11:53:43.166Z,81.12
2018-09-29T11:54:43.156Z,80.26
2018-09-29T11:55:43.153Z,79.91
2018-09-29T11:56:43.147Z,78.19
2018-09-29T11:57:43.136Z,74.83
2018-09-29T11:58:43.393Z,76.27
2018-09-29T11:59:43.124Z,75.12
2018-09-29T12:00:43.118Z,74.29
2018-09-29T12:01:43.122Z,71.8
2018-09-29T12:02:43.374Z,70.78
2018-09-29T12:03:43.104Z,70.78
2018-09-29T12:04:43.100Z,68.02
2018-09-29T12:05:43.093Z,67.35
2018-09-29T12:06:43.103Z,68.41
2018-09-29T12:07:43.486Z,69.31
2018-09-29T12:08:43.084Z,66.74
2018-09-29T12:09:43.082Z,65.05
2018-09-29T12:10:43.344Z,64.02
2018-09-29T12:11:43.082Z,62.32
2018-09-29T12:12:43.344Z,60.97
2018-09-29T12:13:43.463Z,62.63
2018-09-29T12:14:43.066Z,62.28
2018-09-29T12:15:43.337Z,59.52
2018-09-29T12:16:43.335Z,60
2018-09-29T12:17:43.335Z,57.71
2018-09-29T12:18:43.630Z,59.45
2018-09-29T12:19:43.376Z,55.13
2018-09-29T12:20:43.065Z,56.87
2018-09-29T12:21:43.066Z,56.77
2018-09-29T12:22:43.330Z,55.23
2018-09-29T12:23:43.327Z,54.97
2018-09-29T12:24:43.327Z,52.75
2018-09-29T12:25:43.330Z,52.77
2018-09-29T12:26:43.068Z,52.67
2018-09-29T12:27:43.337Z,53.09
2018-09-29T12:28:43.071Z,49.7
2018-09-29T12:29:43.386Z,49.32
2018-09-29T12:30:43.343Z,49.51
2018-09-29T12:31:43.344Z,49.05
2018-09-29T12:32:43.359Z,49.51
2018-09-29T12:33:43.094Z,48.08
2018-09-29T12:34:43.358Z,47.31
2018-09-29T12:35:43.092Z,49.32
2018-09-29T12:36:43.426Z,48.76
2018-09-29T12:37:43.211Z,48.95
2018-09-29T12:38:43.101Z,49.63
2018-09-29T12:39:43.107Z,47.79
2018-09-29T12:40:43.377Z,48.76
2018-09-29T12:41:43.110Z,49.54
2018-09-29T12:42:43.739Z,49.24
2018-09-29T12:43:43.383Z,48.95
2018-09-29T12:44:43.432Z,47.52
2018-09-29T12:45:43.389Z,46.66
2018-09-29T12:46:43.401Z,47.31
2018-09-29T12:47:43.203Z,48.76
2018-09-29T12:48:43.397Z,48.11
2018-09-29T12:49:43.405Z,48.97
2018-09-29T12:50:43.143Z,48.42
2018-09-29T12:51:43.207Z,48.35
2018-09-29T12:52:43.422Z,46.33
2018-09-29T12:53:43.161Z,47.89
2018-09-29T12:54:43.429Z,47.52